createdAt,value
2023-02-26T00:01:47.529Z,42.70
2023-02-26T00:04:16.073Z,8.80
2023-02-26T00:06:53.700Z,41.40
2023-02-26T00:09:24.860Z,12.20
2023-02-26T00:11:53.749Z,38.60
2023-02-26T00:14:22.415Z,32.70
2023-02-26T00:17:22.767Z,93.90
2023-02-26T00:19:51.409Z,12.00
2023-02-26T00:22:19.921Z,35.20
2023-02-26T00:24:48.216Z,11.10
2023-02-26T00:27:16.912Z,11.80
2023-02-26T00:29:45.864Z,6.60
2023-02-26T00:32:14.526Z,10.30
2023-02-26T00:34:43.634Z,16.00
2023-02-26T00:37:23.941Z,12.10
2023-02-26T00:39:59.905Z,19.00
2023-02-26T00:42:28.446Z,23.00
2023-02-26T00:44:56.953Z,16.50
2023-02-26T00:47:40.415Z,7.40
2023-02-26T00:50:18.129Z,6.60
2023-02-26T00:53:17.564Z,2.80
2023-02-26T00:55:45.897Z,2.20
2023-02-26T00:58:14.156Z,12.40
2023-02-26T01:00:42.451Z,20.70
2023-02-26T01:03:12.252Z,11.50
2023-02-26T01:05:40.862Z,10.60
2023-02-26T01:08:34.660Z,5.50
2023-02-26T01:11:03.215Z,5.80
2023-02-26T01:13:31.607Z,11.00
2023-02-26T01:16:08.455Z,9.00
2023-02-26T01:18:53.205Z,7.10
2023-02-26T01:21:37.541Z,12.00
2023-02-26T01:24:10.472Z,7.20
2023-02-26T01:29:07.666Z,4.90
2023-02-26T01:32:03.508Z,2.80
2023-02-26T01:34:35.694Z,7.00
2023-02-26T01:37:31.669Z,5.80
2023-02-26T01:40:17.473Z,27.00
2023-02-26T01:42:49.735Z,43.50
2023-02-26T01:45:26.673Z,38.00
2023-02-26T01:48:05.837Z,26.00
2023-02-26T01:50:36.570Z,41.50
2023-02-26T01:53:24.469Z,89.50
2023-02-26T01:56:00.348Z,75.50
2023-02-26T01:58:33.821Z,23.80
2023-02-26T02:01:02.526Z,8.90
2023-02-26T02:03:34.438Z,46.10
2023-02-26T02:06:15.947Z,65.40
2023-02-26T02:08:45.732Z,37.90
2023-02-26T02:11:15.317Z,10.20
2023-02-26T02:14:08.822Z,45.90
2023-02-26T02:19:41.425Z,19.90
2023-02-26T02:22:16.025Z,17.70
2023-02-26T02:25:04.425Z,32.50
2023-02-26T02:27:50.854Z,11.40
2023-02-26T02:30:32.833Z,13.70
2023-02-26T02:33:12.858Z,14.10
2023-02-26T02:36:08.172Z,17.00
2023-02-26T02:38:45.616Z,18.50
2023-02-26T02:41:30.317Z,27.10
2023-02-26T02:44:02.741Z,12.90
2023-02-26T02:46:34.532Z,7.10
2023-02-26T02:49:10.129Z,4.80
2023-02-26T02:51:43.065Z,4.50
2023-02-26T02:56:59.135Z,4.40
2023-02-26T02:59:39.322Z,5.00
2023-02-26T03:02:13.175Z,4.90
2023-02-26T03:04:42.659Z,3.30
2023-02-26T03:07:11.634Z,4.10
2023-02-26T03:09:40.223Z,3.40
2023-02-26T03:12:08.588Z,3.90
2023-02-26T03:14:37.474Z,3.70
2023-02-26T03:17:25.178Z,3.50
2023-02-26T03:19:59.302Z,2.80
2023-02-26T03:22:34.929Z,4.60
2023-02-26T03:25:21.744Z,3.40
2023-02-26T03:27:50.209Z,6.50
2023-02-26T03:30:30.545Z,5.20
2023-02-26T03:33:13.710Z,4.60
2023-02-26T03:41:23.944Z,11.80
2023-02-26T03:44:33.984Z,11.20
2023-02-26T03:47:08.464Z,10.00
2023-02-26T03:49:46.303Z,9.50
2023-02-26T03:52:15.805Z,9.50
2023-02-26T03:55:10.242Z,8.40
2023-02-26T03:58:03.034Z,7.10
2023-02-26T04:00:44.910Z,6.40
2023-02-26T04:03:22.202Z,7.00
2023-02-26T04:05:52.869Z,8.20
2023-02-26T04:08:23.589Z,9.30
2023-02-26T04:11:01.051Z,10.50
2023-02-26T04:13:29.589Z,14.30
2023-02-26T04:15:58.232Z,45.00
2023-02-26T04:18:26.659Z,67.30
2023-02-26T04:20:54.859Z,36.40
2023-02-26T04:23:23.165Z,49.50
2023-02-26T04:25:51.510Z,87.50
2023-02-26T04:28:19.750Z,67.90
2023-02-26T04:30:48.806Z,18.30
2023-02-26T04:33:17.509Z,23.10
2023-02-26T04:35:46.515Z,25.40
2023-02-26T04:38:15.149Z,22.70
2023-02-26T04:40:43.366Z,23.50
2023-02-26T04:43:12.742Z,12.20
2023-02-26T04:45:48.452Z,24.60
2023-02-26T04:48:17.567Z,26.90
2023-02-26T04:50:46.857Z,23.10
2023-02-26T04:53:15.209Z,16.00
2023-02-26T04:55:44.449Z,18.90
2023-02-26T04:58:12.645Z,19.30
2023-02-26T05:00:41.213Z,12.90
2023-02-26T05:03:10.183Z,11.80
2023-02-26T05:05:38.435Z,14.10
2023-02-26T05:08:07.901Z,15.00
2023-02-26T05:10:36.754Z,12.90
2023-02-26T05:13:05.994Z,15.80
2023-02-26T05:15:35.469Z,14.30
2023-02-26T05:18:03.857Z,15.90
2023-02-26T05:20:32.098Z,21.10
2023-02-26T05:23:00.529Z,32.40
2023-02-26T05:25:28.956Z,30.20
2023-02-26T05:27:57.471Z,24.70
2023-02-26T05:30:25.826Z,25.60
2023-02-26T05:32:55.014Z,23.10
2023-02-26T05:35:23.250Z,21.70
2023-02-26T05:37:51.426Z,31.30
2023-02-26T05:40:19.686Z,38.60
2023-02-26T05:42:47.949Z,34.20
2023-02-26T05:45:16.285Z,28.60
2023-02-26T05:47:44.744Z,36.50
2023-02-26T05:50:13.353Z,48.70
2023-02-26T05:52:41.690Z,86.50
2023-02-26T05:55:10.525Z,75.00
2023-02-26T05:57:38.892Z,38.40
2023-02-26T06:00:08.667Z,27.60
2023-02-26T06:02:42.988Z,20.40
2023-02-26T06:05:12.125Z,19.10
2023-02-26T06:07:40.284Z,40.80
2023-02-26T06:10:09.529Z,26.20
2023-02-26T06:12:38.551Z,22.90
2023-02-26T06:15:07.879Z,48.60
2023-02-26T06:17:36.149Z,29.70
2023-02-26T06:20:05.693Z,42.20
2023-02-26T06:22:33.986Z,12.80
2023-02-26T06:25:02.351Z,11.00
2023-02-26T06:27:30.709Z,8.50
2023-02-26T06:29:58.918Z,12.40
2023-02-26T06:32:30.214Z,16.20
2023-02-26T06:34:58.866Z,29.30
2023-02-26T06:37:27.606Z,27.20
2023-02-26T06:39:55.830Z,23.40
2023-02-26T06:42:24.430Z,50.50
2023-02-26T06:44:52.606Z,68.50
2023-02-26T06:47:20.912Z,59.40
2023-02-26T06:49:49.379Z,49.60
2023-02-26T06:52:17.615Z,55.70
2023-02-26T06:54:46.077Z,66.10
2023-02-26T06:57:14.412Z,36.00
2023-02-26T06:59:42.630Z,15.90
2023-02-26T07:02:19.624Z,57.40
2023-02-26T07:04:47.848Z,51.80
2023-02-26T07:07:16.178Z,30.10
2023-02-26T07:09:45.954Z,16.90
2023-02-26T07:12:14.324Z,19.60
2023-02-26T07:14:43.267Z,10.90
2023-02-26T07:17:20.436Z,12.70
2023-02-26T07:19:52.823Z,12.60
2023-02-26T07:22:22.187Z,20.10
2023-02-26T07:24:51.399Z,26.40
2023-02-26T07:27:19.835Z,28.40
2023-02-26T07:29:48.100Z,33.10
2023-02-26T07:32:16.577Z,31.60
2023-02-26T07:34:44.853Z,33.80
2023-02-26T07:37:13.160Z,252.30
2023-02-26T07:39:41.820Z,100.30
2023-02-26T07:42:10.574Z,53.10
2023-02-26T07:44:40.826Z,25.50
2023-02-26T07:47:09.710Z,44.50
2023-02-26T07:49:37.974Z,48.20
2023-02-26T07:52:08.274Z,29.40
2023-02-26T07:54:37.429Z,30.20
2023-02-26T07:57:06.264Z,21.20
2023-02-26T07:59:34.549Z,19.90
2023-02-26T08:02:02.988Z,21.30
2023-02-26T08:04:33.190Z,33.80
2023-02-26T08:07:01.905Z,31.00
2023-02-26T08:09:30.916Z,54.60
2023-02-26T08:11:59.309Z,87.70
2023-02-26T08:14:27.630Z,41.20
2023-02-26T08:16:56.043Z,65.60
2023-02-26T08:19:24.272Z,35.90
2023-02-26T08:21:55.428Z,45.50
2023-02-26T08:24:23.730Z,44.60
2023-02-26T08:26:52.163Z,24.80
2023-02-26T08:29:20.700Z,32.70
2023-02-26T08:31:49.355Z,27.30
2023-02-26T08:34:18.632Z,23.30
2023-02-26T08:36:46.976Z,20.30
2023-02-26T08:39:15.296Z,24.50
2023-02-26T08:41:43.620Z,20.00
2023-02-26T08:44:12.017Z,29.20
2023-02-26T08:46:40.429Z,31.90
2023-02-26T08:49:09.108Z,21.00
2023-02-26T08:51:37.452Z,16.50
2023-02-26T08:54:05.794Z,25.00
2023-02-26T08:56:34.154Z,27.20
2023-02-26T08:59:02.421Z,40.80
2023-02-26T09:01:31.025Z,30.40
2023-02-26T09:03:59.305Z,33.80
2023-02-26T09:06:28.073Z,78.20
2023-02-26T09:08:57.044Z,51.70
2023-02-26T09:11:25.624Z,42.30
2023-02-26T09:13:54.074Z,30.80
2023-02-26T09:16:22.456Z,22.00
2023-02-26T09:18:51.004Z,20.80
2023-02-26T09:21:19.362Z,52.80
2023-02-26T09:23:48.281Z,24.80
2023-02-26T09:26:16.639Z,23.90
2023-02-26T09:28:44.958Z,22.10
2023-02-26T09:31:13.431Z,23.90
2023-02-26T09:33:41.898Z,22.50
2023-02-26T09:36:10.357Z,23.10
2023-02-26T09:38:38.643Z,28.10
2023-02-26T09:41:16.238Z,31.10
2023-02-26T09:43:44.467Z,26.40
2023-02-26T09:46:32.526Z,22.70
2023-02-26T09:49:12.552Z,25.00
2023-02-26T09:51:42.451Z,29.40
2023-02-26T09:54:23.187Z,95.80
2023-02-26T09:56:59.268Z,66.20
2023-02-26T09:59:34.794Z,50.90
2023-02-26T10:02:14.627Z,73.10
2023-02-26T10:05:04.671Z,38.80
2023-02-26T10:07:50.762Z,32.70
2023-02-26T10:10:55.014Z,25.20
2023-02-26T10:13:49.018Z,30.60
2023-02-26T10:16:28.671Z,28.60
2023-02-26T10:19:33.308Z,25.90
2023-02-26T10:22:15.924Z,29.20
2023-02-26T10:25:02.259Z,27.00
2023-02-26T10:27:48.428Z,19.40
2023-02-26T10:30:29.601Z,83.50
2023-02-26T10:33:35.494Z,107.80
2023-02-26T10:36:25.564Z,25.50
2023-02-26T10:39:04.168Z,34.00
2023-02-26T10:41:37.210Z,53.80
2023-02-26T10:44:24.246Z,35.40
2023-02-26T10:46:55.607Z,35.80
2023-02-26T10:49:26.942Z,36.80
2023-02-26T10:51:56.797Z,34.80
2023-02-26T10:54:39.838Z,36.30
2023-02-26T10:59:43.213Z,34.40
2023-02-26T11:02:46.211Z,32.30
2023-02-26T11:05:22.564Z,38.40
2023-02-26T11:07:56.046Z,45.90
2023-02-26T11:10:28.754Z,81.20
2023-02-26T11:12:59.012Z,40.10
2023-02-26T11:15:28.268Z,28.70
2023-02-26T11:18:01.776Z,33.10
2023-02-26T11:20:42.945Z,27.50
2023-02-26T11:23:18.710Z,30.50
2023-02-26T11:25:54.562Z,41.60
2023-02-26T11:28:30.589Z,26.20
2023-02-26T11:31:02.298Z,22.60
2023-02-26T11:33:44.606Z,67.10
2023-02-26T11:36:16.755Z,97.40
2023-02-26T11:38:46.985Z,63.80
2023-02-26T11:41:17.319Z,76.70
2023-02-26T11:44:01.591Z,61.60
2023-02-26T11:46:30.243Z,36.50
2023-02-26T11:49:02.103Z,15.80
2023-02-26T11:51:30.825Z,19.90
2023-02-26T11:54:01.695Z,25.60
2023-02-26T11:56:40.513Z,18.60
2023-02-26T11:59:21.373Z,30.50
2023-02-26T12:01:51.696Z,41.50
2023-02-26T12:04:27.653Z,55.30
2023-02-26T12:06:56.675Z,34.60
2023-02-26T12:09:27.413Z,44.30
2023-02-26T12:12:06.160Z,41.70
2023-02-26T12:14:43.915Z,77.30
2023-02-26T12:17:18.065Z,23.60
2023-02-26T12:19:55.236Z,38.60
2023-02-26T12:22:42.186Z,38.90
2023-02-26T12:25:26.540Z,58.80
2023-02-26T12:28:03.545Z,49.70
2023-02-26T12:31:09.198Z,72.70
2023-02-26T12:34:01.499Z,55.20
2023-02-26T12:36:48.776Z,116.90
2023-02-26T12:39:25.865Z,72.50
2023-02-26T12:42:13.678Z,69.60
2023-02-26T12:44:48.100Z,67.90
2023-02-26T12:47:44.585Z,83.90
2023-02-26T12:50:43.778Z,59.10
2023-02-26T12:53:23.955Z,53.70
2023-02-26T12:56:07.466Z,41.00
2023-02-26T12:59:03.815Z,52.10
2023-02-26T13:02:01.380Z,46.30
2023-02-26T13:04:42.575Z,39.80
2023-02-26T13:07:32.742Z,69.30
2023-02-26T13:10:22.226Z,57.40
2023-02-26T13:13:09.027Z,71.70
2023-02-26T13:15:37.230Z,117.20
2023-02-26T13:18:05.381Z,54.20
2023-02-26T13:20:36.435Z,79.20
2023-02-26T13:23:12.168Z,38.90
2023-02-26T13:26:02.502Z,42.10
2023-02-26T13:28:52.293Z,71.80
2023-02-26T13:31:27.720Z,55.90
2023-02-26T13:34:00.353Z,71.20
2023-02-26T13:36:29.547Z,49.30
2023-02-26T13:39:08.660Z,52.10
2023-02-26T13:41:45.725Z,54.70
2023-02-26T13:44:36.671Z,50.80
2023-02-26T13:47:43.028Z,46.00
2023-02-26T13:50:38.000Z,61.50
2023-02-26T13:53:41.149Z,46.90
2023-02-26T13:56:32.494Z,52.20
2023-02-26T13:59:12.475Z,46.40
2023-02-26T14:01:57.731Z,81.10
2023-02-26T14:04:30.258Z,58.40
2023-02-26T14:07:00.201Z,61.80
2023-02-26T14:09:28.663Z,106.00
2023-02-26T14:12:22.993Z,58.50
2023-02-26T14:15:02.959Z,104.50
2023-02-26T14:17:39.837Z,49.20
2023-02-26T14:20:22.409Z,62.30
2023-02-26T14:22:58.633Z,59.50
2023-02-26T14:25:35.068Z,41.40
2023-02-26T14:28:43.289Z,29.90
2023-02-26T14:31:11.678Z,78.30
2023-02-26T14:33:59.910Z,50.00
2023-02-26T14:36:46.586Z,37.40
2023-02-26T14:39:47.069Z,32.20
2023-02-26T14:42:21.399Z,43.50
2023-02-26T14:45:16.846Z,51.50
2023-02-26T14:47:47.215Z,29.00
2023-02-26T14:50:21.539Z,22.30
2023-02-26T14:53:27.726Z,34.40
2023-02-26T14:55:55.861Z,21.50
2023-02-26T14:58:43.192Z,21.00
2023-02-26T15:01:30.113Z,32.40
2023-02-26T15:04:21.268Z,32.00
2023-02-26T15:06:58.702Z,25.70
2023-02-26T15:09:33.527Z,50.60
2023-02-26T15:12:01.825Z,45.60
2023-02-26T15:14:44.969Z,40.90
2023-02-26T15:17:22.117Z,65.00
2023-02-26T15:20:17.946Z,96.60
2023-02-26T15:22:59.077Z,85.70
2023-02-26T15:25:41.071Z,54.10
2023-02-26T15:28:40.428Z,53.50
2023-02-26T15:31:13.445Z,39.40
2023-02-26T15:33:42.481Z,127.20
2023-02-26T15:36:18.812Z,61.30
2023-02-26T15:38:50.132Z,63.60
2023-02-26T15:41:18.773Z,80.20
2023-02-26T15:43:55.334Z,83.70
2023-02-26T15:46:29.855Z,58.30
2023-02-26T15:49:05.801Z,127.70
2023-02-26T15:51:34.863Z,45.50
2023-02-26T15:54:03.714Z,52.20
2023-02-26T15:56:37.939Z,74.70
2023-02-26T15:59:17.364Z,90.10
2023-02-26T16:01:46.023Z,168.10
2023-02-26T16:04:19.969Z,243.30
2023-02-26T16:06:53.051Z,110.50
2023-02-26T16:09:29.438Z,385.00
2023-02-26T16:12:06.146Z,366.20
2023-02-26T16:14:40.010Z,87.80
2023-02-26T16:17:17.070Z,23.70
2023-02-26T16:19:48.439Z,28.60
2023-02-26T16:22:26.040Z,61.00
2023-02-26T16:25:00.617Z,144.90
2023-02-26T16:27:31.515Z,29.70
2023-02-26T16:30:01.915Z,66.30
2023-02-26T16:32:34.137Z,36.40
2023-02-26T16:35:12.675Z,70.30
2023-02-26T16:37:45.433Z,116.00
2023-02-26T16:40:29.059Z,46.30
2023-02-26T16:43:03.519Z,88.40
2023-02-26T16:45:38.067Z,159.80
2023-02-26T16:48:23.404Z,149.60
2023-02-26T16:51:07.540Z,53.10
2023-02-26T16:53:45.271Z,55.40
2023-02-26T16:56:18.302Z,30.90
2023-02-26T16:58:53.927Z,86.80
2023-02-26T17:01:23.465Z,23.50
2023-02-26T17:04:00.264Z,22.20
2023-02-26T17:06:32.512Z,22.60
2023-02-26T17:09:02.636Z,72.50
2023-02-26T17:11:35.632Z,39.80
2023-02-26T17:16:41.444Z,41.90
2023-02-26T17:19:09.736Z,26.00
2023-02-26T17:21:44.700Z,22.90
2023-02-26T17:24:47.603Z,24.00
2023-02-26T17:27:23.151Z,12.10
2023-02-26T17:29:52.079Z,19.30
2023-02-26T17:32:23.661Z,32.60
2023-02-26T17:34:52.030Z,73.90
2023-02-26T17:37:21.477Z,40.90
2023-02-26T17:39:49.734Z,30.60
2023-02-26T17:42:21.567Z,24.20
2023-02-26T17:44:50.743Z,47.80
2023-02-26T17:47:24.151Z,64.80
2023-02-26T17:49:54.144Z,42.50
2023-02-26T17:52:22.422Z,31.40
2023-02-26T17:54:50.772Z,64.20
2023-02-26T17:57:21.541Z,44.10
2023-02-26T17:59:53.097Z,30.70
2023-02-26T18:02:25.538Z,68.90
2023-02-26T18:04:54.420Z,53.70
2023-02-26T18:07:24.591Z,37.40
2023-02-26T18:09:53.003Z,29.80
2023-02-26T18:12:22.369Z,13.70
2023-02-26T18:14:50.921Z,29.20
2023-02-26T18:17:24.304Z,171.80
2023-02-26T18:19:53.033Z,18.90
2023-02-26T18:22:25.502Z,32.90
2023-02-26T18:24:55.545Z,19.50
2023-02-26T18:27:26.189Z,69.00
2023-02-26T18:29:54.709Z,102.90
2023-02-26T18:32:25.267Z,49.00
2023-02-26T18:34:53.946Z,97.90
2023-02-26T18:37:26.140Z,79.30
2023-02-26T18:39:55.934Z,46.90
2023-02-26T18:42:27.111Z,31.90
2023-02-26T18:44:55.869Z,24.40
2023-02-26T18:47:26.323Z,27.20
2023-02-26T18:49:54.591Z,36.40
2023-02-26T18:52:23.307Z,38.30
2023-02-26T18:54:51.781Z,79.40
2023-02-26T18:57:20.030Z,155.70
2023-02-26T18:59:48.810Z,39.60
2023-02-26T19:02:17.124Z,55.30
2023-02-26T19:04:47.190Z,18.40
2023-02-26T19:07:16.267Z,19.60
2023-02-26T19:09:44.537Z,36.00
2023-02-26T19:12:19.659Z,26.20
2023-02-26T19:14:49.150Z,32.70
2023-02-26T19:17:17.397Z,18.90
2023-02-26T19:19:45.684Z,24.50
2023-02-26T19:22:14.699Z,13.90
2023-02-26T19:24:44.088Z,15.70
2023-02-26T19:27:13.405Z,7.90
2023-02-26T19:29:42.626Z,7.80
2023-02-26T19:32:11.062Z,8.40
2023-02-26T19:34:39.510Z,7.80
2023-02-26T19:37:08.026Z,8.30
2023-02-26T19:39:37.144Z,7.00
2023-02-26T19:42:05.807Z,14.90
2023-02-26T19:44:34.124Z,21.70
2023-02-26T19:47:02.750Z,20.90
2023-02-26T19:49:31.137Z,16.90
2023-02-26T19:51:59.275Z,22.20
2023-02-26T19:54:27.562Z,32.70
2023-02-26T19:56:55.820Z,15.20
2023-02-26T19:59:24.093Z,8.50
2023-02-26T20:01:52.431Z,10.00
2023-02-26T20:04:20.618Z,9.30
2023-02-26T20:06:48.933Z,14.80
2023-02-26T20:09:19.347Z,42.20
2023-02-26T20:11:47.684Z,19.60
2023-02-26T20:14:16.257Z,9.70
2023-02-26T20:16:44.530Z,25.60
2023-02-26T20:19:13.040Z,57.60
2023-02-26T20:21:41.251Z,25.80
2023-02-26T20:24:10.647Z,12.50
2023-02-26T20:26:38.927Z,10.70
2023-02-26T20:29:07.238Z,28.10
2023-02-26T20:31:35.632Z,56.10
2023-02-26T20:34:04.173Z,102.90
2023-02-26T20:36:32.517Z,111.20
2023-02-26T20:39:02.620Z,29.90
2023-02-26T20:41:30.933Z,16.20
2023-02-26T20:43:59.222Z,19.90
2023-02-26T20:46:27.488Z,19.40
2023-02-26T20:48:55.708Z,37.90
2023-02-26T20:51:23.973Z,22.00
2023-02-26T20:53:52.348Z,15.60
2023-02-26T20:56:20.713Z,15.90
2023-02-26T20:58:48.987Z,16.80
2023-02-26T21:01:17.179Z,15.90
2023-02-26T21:03:45.365Z,16.30
2023-02-26T21:06:13.644Z,12.40
2023-02-26T21:08:43.888Z,14.30
2023-02-26T21:11:12.193Z,12.40
2023-02-26T21:13:40.391Z,32.40
2023-02-26T21:16:08.938Z,13.10
2023-02-26T21:18:37.159Z,9.80
2023-02-26T21:21:05.622Z,10.40
2023-02-26T21:23:33.943Z,8.60
2023-02-26T21:26:02.172Z,9.90
2023-02-26T21:28:30.427Z,16.30
2023-02-26T21:30:58.990Z,14.50
2023-02-26T21:33:27.438Z,32.70
2023-02-26T21:35:55.716Z,35.70
2023-02-26T21:38:23.970Z,21.60
2023-02-26T21:40:54.516Z,9.00
2023-02-26T21:43:22.735Z,7.80
2023-02-26T21:45:51.045Z,9.20
2023-02-26T21:48:19.312Z,7.80
2023-02-26T21:50:48.130Z,44.00
2023-02-26T21:53:16.444Z,41.60
2023-02-26T21:55:44.655Z,19.00
2023-02-26T21:58:12.898Z,14.20
2023-02-26T22:00:41.859Z,8.70
2023-02-26T22:03:11.500Z,11.60
2023-02-26T22:05:39.816Z,10.50
2023-02-26T22:08:08.101Z,9.30
2023-02-26T22:10:36.369Z,7.90
2023-02-26T22:13:04.679Z,19.70
2023-02-26T22:15:32.846Z,15.30
2023-02-26T22:18:01.100Z,8.40
2023-02-26T22:20:30.436Z,15.90
2023-02-26T22:22:59.135Z,23.30
2023-02-26T22:25:27.365Z,8.70
2023-02-26T22:27:55.666Z,12.20
2023-02-26T22:30:25.416Z,15.60
2023-02-26T22:32:53.722Z,29.80
2023-02-26T22:35:22.115Z,25.00
2023-02-26T22:37:50.388Z,13.10
2023-02-26T22:40:18.937Z,20.30
2023-02-26T22:42:47.242Z,7.50
2023-02-26T22:45:17.704Z,7.60
2023-02-26T22:47:48.078Z,4.40
2023-02-26T22:50:17.008Z,4.60
2023-02-26T22:52:45.852Z,7.00
2023-02-26T22:55:14.164Z,12.70
2023-02-26T22:57:42.503Z,8.30
2023-02-26T23:00:18.799Z,6.50
2023-02-26T23:02:48.911Z,4.70
2023-02-26T23:05:19.374Z,4.50
2023-02-26T23:07:47.594Z,4.50
2023-02-26T23:10:19.397Z,4.60
2023-02-26T23:12:47.921Z,4.00
2023-02-26T23:15:16.536Z,12.10
2023-02-26T23:17:44.838Z,7.90
2023-02-26T23:20:14.919Z,6.30
2023-02-26T23:22:43.830Z,4.20
2023-02-26T23:25:12.654Z,6.10
2023-02-26T23:27:41.079Z,8.30
2023-02-26T23:30:10.471Z,17.00
2023-02-26T23:32:38.907Z,17.20
2023-02-26T23:35:07.731Z,27.80
2023-02-26T23:37:36.409Z,36.50
2023-02-26T23:40:05.810Z,16.20
2023-02-26T23:42:34.378Z,19.60
2023-02-26T23:45:02.793Z,27.20
2023-02-26T23:47:31.068Z,6.40
2023-02-26T23:49:59.306Z,5.40
2023-02-26T23:52:27.555Z,7.70
2023-02-26T23:54:56.880Z,5.30
2023-02-26T23:57:25.662Z,39.60
2023-02-26T23:59:53.989Z,31.10
